Time;durP1;ratioP1;P1;durP2;ratioP2;P2;SDS_P1;SDS_P2;PMS_P1;PMS_P2;Temp;Humidity;BMP_temperature;BMP_pressure;BME280_temperature;BME280_humidity;BME280_pressure;Samples;Min_cycle;Max_cycle;Signal;HPM_P1;HPM_P2
2022/05/30 04:02:25;;;;;;;6.57;6.17;;;7.00;99.90;;;;;;5133900;23;20289;-62
2022/05/30 04:04:52;;;;;;;7.60;7.10;;;7.00;99.90;;;;;;5014557;28;20553;-62
2022/05/30 04:07:18;;;;;;;6.77;6.37;;;7.10;99.90;;;;;;5014620;28;20453;-63
2022/05/30 04:09:45;;;;;;;6.23;5.83;;;7.20;99.90;;;;;;5014626;28;20457;-63
2022/05/30 04:12:12;;;;;;;5.30;5.00;;;7.30;99.90;;;;;;5014614;28;20477;-63
2022/05/30 04:14:39;;;;;;;5.93;5.43;;;7.40;99.90;;;;;;5014559;28;20943;-63
2022/05/30 04:17:06;;;;;;;6.10;5.70;;;7.40;99.90;;;;;;5015156;28;20467;-63
2022/05/30 04:19:34;;;;;;;6.30;5.80;;;7.50;99.90;;;;;;5014743;28;20481;-63
2022/05/30 04:22:01;;;;;;;7.23;6.00;;;7.60;99.90;;;;;;5015504;28;20477;-64
2022/05/30 04:24:28;;;;;;;6.47;5.63;;;7.60;99.90;;;;;;5014986;28;20484;-63
2022/05/30 04:26:55;;;;;;;6.87;6.27;;;7.60;99.90;;;;;;5015125;28;20809;-63
2022/05/30 04:29:22;;;;;;;6.97;6.40;;;7.70;99.90;;;;;;5014841;28;20812;-63
2022/05/30 04:31:49;;;;;;;7.33;6.60;;;7.70;99.90;;;;;;5014800;28;20821;-63
2022/05/30 04:34:15;;;;;;;9.90;7.00;;;7.70;99.90;;;;;;5015963;28;20457;-64
2022/05/30 04:36:43;;;;;;;6.53;6.03;;;7.70;99.90;;;;;;5014791;28;20453;-63
2022/05/30 04:39:10;;;;;;;6.23;5.80;;;7.70;99.90;;;;;;5014748;28;21007;-64
2022/05/30 04:41:37;;;;;;;6.97;6.37;;;7.80;99.90;;;;;;5014991;28;20473;-63
2022/05/30 04:44:04;;;;;;;7.40;6.10;;;7.80;99.90;;;;;;5014611;28;20503;-63
2022/05/30 04:46:31;;;;;;;6.00;5.60;;;7.90;99.90;;;;;;5015541;28;20453;-63
2022/05/30 04:48:57;;;;;;;6.33;5.70;;;8.00;99.90;;;;;;5014697;28;20449;-63
2022/05/30 04:51:24;;;;;;;6.40;5.80;;;8.10;99.90;;;;;;5016519;28;20477;-63
2022/05/30 04:53:52;;;;;;;6.23;5.73;;;8.10;99.90;;;;;;5015146;28;20508;-64
2022/05/30 04:56:19;;;;;;;6.80;5.70;;;8.10;99.90;;;;;;5016400;28;20452;-65
2022/05/30 04:58:46;;;;;;;6.27;5.87;;;8.10;99.90;;;;;;5019695;28;20543;-64
2022/05/30 05:01:13;;;;;;;6.30;5.70;;;8.20;99.90;;;;;;5018587;28;20976;-65
2022/05/30 05:03:42;;;;;;;7.50;6.10;;;8.30;99.90;;;;;;5018446;28;20460;-65
2022/05/30 05:06:11;;;;;;;6.17;5.67;;;8.30;99.90;;;;;;5017939;28;20460;-64
2022/05/30 05:08:44;;;;;;;5.93;5.43;;;8.40;99.90;;;;;;5018463;28;20453;-65
2022/05/30 05:11:19;;;;;;;5.80;5.30;;;8.50;99.90;;;;;;5017902;28;20476;-65
2022/05/30 05:13:46;;;;;;;6.20;5.80;;;8.50;99.90;;;;;;5018712;28;20460;-65
2022/05/30 05:16:13;;;;;;;5.97;5.57;;;8.60;99.90;;;;;;5018417;28;20519;-65
2022/05/30 05:18:40;;;;;;;5.70;5.30;;;8.70;99.90;;;;;;5017657;28;20452;-64
2022/05/30 05:21:07;;;;;;;5.27;4.90;;;8.90;99.90;;;;;;5017616;28;20532;-65
2022/05/30 05:23:35;;;;;;;5.80;5.20;;;9.00;99.90;;;;;;5018798;28;20461;-66
2022/05/30 05:26:07;;;;;;;7.00;6.00;;;9.10;99.90;;;;;;5017581;28;20459;-66
2022/05/30 05:28:35;;;;;;;5.83;5.43;;;9.20;99.90;;;;;;5017318;28;20484;-64
2022/05/30 05:31:02;;;;;;;5.40;5.10;;;9.30;99.90;;;;;;5017547;28;20477;-64
2022/05/30 05:33:29;;;;;;;5.83;5.00;;;9.40;99.90;;;;;;5017483;28;20461;-65
2022/05/30 05:35:56;;;;;;;5.43;4.90;;;9.50;99.90;;;;;;5017343;28;20464;-65
2022/05/30 05:38:22;;;;;;;5.20;4.80;;;9.60;99.90;;;;;;5017683;28;20456;-64
2022/05/30 05:40:50;;;;;;;5.90;5.40;;;9.80;99.90;;;;;;5017294;28;20484;-64
2022/05/30 05:43:17;;;;;;;5.43;5.03;;;9.90;99.90;;;;;;5017197;28;20568;-64
2022/05/30 05:45:46;;;;;;;5.00;4.70;;;10.00;99.90;;;;;;5017334;28;20453;-64
2022/05/30 05:48:14;;;;;;;7.30;5.77;;;10.10;99.90;;;;;;5017034;28;20966;-65
2022/05/30 05:50:42;;;;;;;5.60;5.10;;;10.20;99.90;;;;;;5017694;28;20473;-65
2022/05/30 05:53:09;;;;;;;5.33;5.03;;;10.20;99.90;;;;;;5018215;28;20464;-65
2022/05/30 05:55:37;;;;;;;6.07;5.57;;;10.30;99.90;;;;;;5018610;28;20453;-65
2022/05/30 05:58:04;;;;;;;5.67;5.23;;;10.40;99.90;;;;;;5018177;28;20511;-65
2022/05/30 06:00:32;;;;;;;6.73;6.13;;;10.50;99.90;;;;;;5016623;28;20488;-65
2022/05/30 06:03:00;;;;;;;5.00;4.67;;;10.60;99.90;;;;;;5022870;28;20441;-65
2022/05/30 06:05:30;;;;;;;5.50;5.07;;;10.60;99.90;;;;;;5029962;28;20464;-65
2022/05/30 06:07:59;;;;;;;5.53;5.13;;;10.60;99.90;;;;;;5028442;28;20467;-65
2022/05/30 06:10:26;;;;;;;6.30;5.70;;;10.80;99.90;;;;;;5027564;28;20995;-66
2022/05/30 06:12:53;;;;;;;5.70;5.30;;;10.90;99.90;;;;;;5020432;28;20453;-66
2022/05/30 06:15:20;;;;;;;5.03;4.63;;;11.00;99.90;;;;;;5016597;28;20464;-65
2022/05/30 06:17:48;;;;;;;5.20;4.80;;;11.20;99.90;;;;;;5016478;28;20460;-65
2022/05/30 06:20:18;;;;;;;5.30;4.90;;;11.30;99.90;;;;;;5016422;28;20484;-65
2022/05/30 06:22:45;;;;;;;5.80;5.20;;;11.50;99.90;;;;;;5017070;28;20441;-66
2022/05/30 06:25:12;;;;;;;4.63;4.33;;;11.70;99.90;;;;;;5016467;28;20453;-65
2022/05/30 06:27:39;;;;;;;5.17;4.87;;;11.90;99.90;;;;;;5016389;28;20472;-65
2022/05/30 06:30:07;;;;;;;5.13;4.80;;;12.20;99.90;;;;;;5016309;28;20460;-65
2022/05/30 06:32:34;;;;;;;4.80;4.50;;;12.40;99.90;;;;;;5015745;28;21006;-65
2022/05/30 06:35:01;;;;;;;5.23;4.73;;;12.60;99.90;;;;;;5015779;28;20948;-65
2022/05/30 06:37:29;;;;;;;6.40;4.67;;;12.90;99.90;;;;;;5016025;28;20463;-65
2022/05/30 06:39:56;;;;;;;4.93;4.53;;;13.10;99.90;;;;;;5016197;28;20568;-65
2022/05/30 06:42:23;;;;;;;4.77;4.33;;;13.40;99.90;;;;;;5016130;28;20483;-65
2022/05/30 06:44:49;;;;;;;5.00;4.60;;;13.60;99.90;;;;;;5016414;28;20457;-65
2022/05/30 06:47:16;;;;;;;6.07;4.27;;;13.90;99.90;;;;;;5015878;28;20920;-65
2022/05/30 06:49:43;;;;;;;4.80;4.40;;;14.10;99.90;;;;;;5015853;28;20449;-64
2022/05/30 06:52:12;;;;;;;4.67;4.37;;;14.50;99.90;;;;;;5015443;28;20984;-65
2022/05/30 06:54:40;;;;;;;4.40;4.00;;;14.90;99.90;;;;;;5015690;28;20523;-65
2022/05/30 06:59:51;;;;;;;3.90;3.60;;;16.00;99.90;;;;;;5015595;28;20480;-65
2022/05/30 07:02:18;;;;;;;5.33;3.70;;;16.60;99.90;;;;;;5015153;28;20898;-65
2022/05/30 07:04:45;;;;;;;4.60;4.20;;;17.00;99.90;;;;;;5015370;28;20467;-65
2022/05/30 07:07:11;;;;;;;4.03;3.63;;;17.50;99.90;;;;;;5015512;28;20452;-65
2022/05/30 07:09:40;;;;;;;3.70;3.37;;;18.20;99.90;;;;;;5015459;28;20460;-65
2022/05/30 07:12:09;;;;;;;3.80;3.50;;;19.00;99.90;;;;;;5014857;28;20999;-65
2022/05/30 07:14:36;;;;;;;3.83;3.63;;;19.40;99.90;;;;;;5015062;28;20453;-65
2022/05/30 07:17:02;;;;;;;3.40;3.10;;;19.50;98.40;;;;;;5015049;28;20485;-65
2022/05/30 07:19:30;;;;;;;3.93;3.57;;;19.90;96.20;;;;;;5015108;28;20865;-65
2022/05/30 07:21:58;;;;;;;4.17;3.40;;;20.10;95.20;;;;;;5015457;28;20495;-67
2022/05/30 07:24:25;;;;;;;3.53;3.33;;;20.30;95.00;;;;;;5016307;28;20457;-68
2022/05/30 07:26:53;;;;;;;3.60;3.40;;;20.60;95.10;;;;;;5016550;28;20460;-69
2022/05/30 07:29:19;;;;;;;3.67;3.37;;;21.20;95.10;;;;;;5015781;28;20453;-69
2022/05/30 07:31:46;;;;;;;4.03;3.00;;;21.80;92.60;;;;;;5015101;28;20473;-68
2022/05/30 07:34:13;;;;;;;3.90;3.43;;;21.60;91.30;;;;;;5015405;28;20511;-68
2022/05/30 07:36:40;;;;;;;4.17;3.77;;;21.80;91.10;;;;;;5014684;28;20999;-69
2022/05/30 07:39:07;;;;;;;3.43;3.13;;;21.50;86.80;;;;;;5015629;28;20804;-68
2022/05/30 07:41:38;;;;;;;3.47;3.23;;;21.80;89.10;;;;;;5014706;28;20492;-68
2022/05/30 07:44:06;;;;;;;3.77;3.47;;;21.90;88.40;;;;;;5015072;28;20444;-68
2022/05/30 07:46:33;;;;;;;6.90;3.33;;;22.30;84.40;;;;;;5014953;28;20456;-66
2022/05/30 07:49:00;;;;;;;3.00;2.83;;;22.10;82.90;;;;;;5015219;28;20475;-66
2022/05/30 07:51:26;;;;;;;3.83;3.30;;;21.80;83.00;;;;;;5014719;28;20473;-66
2022/05/30 07:53:53;;;;;;;3.87;3.30;;;22.10;83.40;;;;;;5014765;28;20453;-66
2022/05/30 07:56:20;;;;;;;3.30;3.00;;;22.40;83.20;;;;;;5015004;28;20456;-66
2022/05/30 07:58:47;;;;;;;3.20;2.90;;;22.70;83.80;;;;;;5014953;28;20464;-66
2022/05/30 08:01:18;;;;;;;4.33;3.03;;;23.20;79.40;;;;;;5014271;28;20492;-66
2022/05/30 08:03:46;;;;;;;2.80;2.60;;;23.60;77.20;;;;;;5014656;28;20513;-66
2022/05/30 08:06:16;;;;;;;3.27;2.90;;;23.20;74.10;;;;;;5014819;28;20875;-66
2022/05/30 08:08:44;;;;;;;3.30;3.00;;;23.00;73.70;;;;;;5014149;28;20437;-66
2022/05/30 08:11:11;;;;;;;4.07;2.97;;;23.00;73.50;;;;;;5014359;28;20476;-66
2022/05/30 08:13:38;;;;;;;3.83;2.77;;;23.20;77.10;;;;;;5014634;28;20484;-66
2022/05/30 08:16:06;;;;;;;4.23;3.43;;;23.20;74.30;;;;;;5015281;28;20456;-66
2022/05/30 08:18:35;;;;;;;2.97;2.70;;;23.30;72.90;;;;;;5014250;28;20459;-66
2022/05/30 08:21:03;;;;;;;3.70;3.10;;;23.70;67.90;;;;;;5013968;28;20484;-67
2022/05/30 08:23:30;;;;;;;3.53;3.23;;;23.90;71.10;;;;;;5013860;28;20456;-66
2022/05/30 08:25:56;;;;;;;3.50;3.20;;;24.20;71.00;;;;;;5014116;28;20457;-66
2022/05/30 08:28:23;;;;;;;3.43;3.07;;;24.60;66.70;;;;;;5013694;28;21051;-67
2022/05/30 08:30:51;;;;;;;3.43;2.77;;;24.70;66.70;;;;;;5013412;28;20469;-65
2022/05/30 08:33:20;;;;;;;3.97;3.57;;;24.60;63.40;;;;;;5013749;28;20816;-65
2022/05/30 08:35:58;;;;;;;2.77;2.57;;;24.70;62.90;;;;;;5014390;28;20819;-65
2022/05/30 08:38:25;;;;;;;5.80;3.23;;;24.50;66.50;;;;;;5013875;28;20931;-66
2022/05/30 08:43:39;;;;;;;2.93;2.63;;;24.70;64.70;;;;;;5014264;28;20416;-65
2022/05/30 08:46:09;;;;;;;2.27;2.13;;;25.20;62.10;;;;;;5013750;28;20789;-65
2022/05/30 08:48:42;;;;;;;4.57;2.67;;;24.70;58.50;;;;;;5013920;28;20932;-65
2022/05/30 08:51:27;;;;;;;2.40;2.20;;;25.00;58.00;;;;;;5013990;28;20531;-65
2022/05/30 08:54:22;;;;;;;5.27;2.50;;;25.20;55.90;;;;;;5014102;28;20491;-65
2022/05/30 08:56:53;;;;;;;2.73;2.47;;;25.20;56.90;;;;;;5014190;28;20437;-65
2022/05/30 08:59:39;;;;;;;2.40;2.20;;;25.40;58.30;;;;;;5013755;28;20456;-65
2022/05/30 09:02:14;;;;;;;3.23;2.20;;;26.10;54.80;;;;;;5013255;28;20992;-66
2022/05/30 09:04:47;;;;;;;1.93;1.83;;;26.50;55.60;;;;;;5014031;28;20444;-65
2022/05/30 09:07:17;;;;;;;2.60;2.13;;;26.80;53.50;;;;;;5013650;28;20919;-65
2022/05/30 09:09:50;;;;;;;3.20;2.37;;;27.10;53.60;;;;;;5014023;28;20532;-65
2022/05/30 09:12:23;;;;;;;2.37;2.20;;;27.50;54.10;;;;;;5013752;28;21006;-65
2022/05/30 09:14:55;;;;;;;2.17;1.90;;;27.70;52.80;;;;;;5013959;28;20460;-65
2022/05/30 09:17:28;;;;;;;4.37;2.43;;;27.70;50.10;;;;;;5014893;28;20444;-65
2022/05/30 09:19:57;;;;;;;4.37;2.37;;;27.40;49.60;;;;;;5014029;28;20441;-65
2022/05/30 09:22:25;;;;;;;12.23;4.20;;;26.80;50.50;;;;;;5013860;28;20480;-64
2022/05/30 09:27:33;;;;;;;3.73;2.40;;;25.50;53.80;;;;;;5013641;28;20437;-64
2022/05/30 09:30:03;;;;;;;3.20;2.70;;;25.30;54.00;;;;;;5014012;28;20452;-64
2022/05/30 09:32:35;;;;;;;3.20;2.90;;;25.70;55.30;;;;;;5013671;28;20643;-65
2022/05/30 09:35:21;;;;;;;4.40;2.53;;;26.30;53.40;;;;;;5013755;28;20773;-65
2022/05/30 09:38:05;;;;;;;6.27;2.93;;;27.00;50.30;;;;;;5013721;28;20951;-65
2022/05/30 09:40:40;;;;;;;3.57;2.90;;;27.00;50.80;;;;;;5013502;28;20484;-65
2022/05/30 09:43:07;;;;;;;2.93;2.03;;;27.50;50.50;;;;;;5014473;28;20436;-65
2022/05/30 09:45:35;;;;;;;3.23;2.40;;;27.70;47.50;;;;;;5017281;28;20456;-65
2022/05/30 09:48:06;;;;;;;2.90;2.20;;;28.10;48.80;;;;;;5017039;28;20506;-65
2022/05/30 09:50:41;;;;;;;2.40;2.27;;;27.90;47.40;;;;;;5016514;28;20835;-65
2022/05/30 09:53:09;;;;;;;7.47;1.93;;;28.10;48.50;;;;;;5017389;28;20465;-65
2022/05/30 09:55:38;;;;;;;2.43;2.23;;;28.20;46.80;;;;;;5016693;28;20464;-65
2022/05/30 09:58:06;;;;;;;2.00;1.90;;;28.00;47.70;;;;;;5016861;28;20453;-65
2022/05/30 10:00:41;;;;;;;3.63;2.03;;;28.00;45.90;;;;;;5016304;28;20852;-65
2022/05/30 10:03:12;;;;;;;2.10;1.90;;;28.00;48.20;;;;;;5016666;28;20440;-65
2022/05/30 10:05:40;;;;;;;3.37;2.50;;;27.80;45.10;;;;;;5016839;28;20441;-65
2022/05/30 10:08:24;;;;;;;6.93;4.20;;;27.70;43.60;;;;;;5016918;28;20441;-65
2022/05/30 10:10:53;;;;;;;3.23;2.20;;;27.80;47.00;;;;;;5016913;28;20831;-65
2022/05/30 10:13:34;;;;;;;1.80;1.70;;;28.40;46.90;;;;;;5016906;28;20464;-65
2022/05/30 10:16:04;;;;;;;2.43;1.73;;;28.80;43.30;;;;;;5017219;28;20479;-65
2022/05/30 10:18:35;;;;;;;4.10;2.00;;;28.80;45.00;;;;;;5017839;28;20452;-65
2022/05/30 10:21:15;;;;;;;1.80;1.70;;;28.90;43.80;;;;;;5016543;28;20485;-65
2022/05/30 10:29:48;;;;;;;2.57;1.20;;;28.70;42.80;;;;;;5015845;28;20424;-65
2022/05/30 10:32:21;;;;;;;2.50;1.80;;;28.50;41.90;;;;;;5015953;28;20476;-65
2022/05/30 10:35:16;;;;;;;1.40;1.30;;;28.70;41.40;;;;;;5015942;28;20442;-65
2022/05/30 10:38:08;;;;;;;1.43;1.30;;;29.10;40.10;;;;;;5015857;28;20437;-65
2022/05/30 10:40:49;;;;;;;1.87;1.67;;;29.20;43.70;;;;;;5013674;28;20484;-66
2022/05/30 10:43:21;;;;;;;2.07;1.93;;;29.80;40.50;;;;;;5015886;28;20447;-65
2022/05/30 10:45:50;;;;;;;3.90;1.53;;;29.50;38.60;;;;;;5015772;28;20510;-65
2022/05/30 10:48:26;;;;;;;2.10;1.17;;;29.40;37.70;;;;;;5015997;28;20511;-65
2022/05/30 10:50:58;;;;;;;1.90;1.33;;;29.10;36.60;;;;;;5015517;28;20476;-65
2022/05/30 10:53:42;;;;;;;1.40;1.30;;;28.70;36.50;;;;;;5015182;28;20437;-65
2022/05/30 10:56:18;;;;;;;1.57;1.57;;;28.30;39.50;;;;;;5015583;28;20441;-65
2022/05/30 10:58:51;;;;;;;1.90;1.30;;;28.10;41.50;;;;;;5015599;28;20440;-64
2022/05/30 11:01:38;;;;;;;1.83;1.50;;;28.00;39.60;;;;;;5015168;28;20543;-65
2022/05/30 11:04:23;;;;;;;1.30;1.20;;;27.90;41.10;;;;;;5015628;28;20440;-65
2022/05/30 11:06:53;;;;;;;1.13;1.13;;;27.30;41.80;;;;;;5015544;28;20803;-64
2022/05/30 11:09:26;;;;;;;2.07;1.27;;;26.90;40.20;;;;;;5015402;28;20460;-64
2022/05/30 11:12:01;;;;;;;2.97;1.60;;;25.90;41.30;;;;;;5015389;28;20549;-64
2022/05/30 11:14:36;;;;;;;2.43;1.50;;;25.10;42.00;;;;;;5015259;28;20440;-64
2022/05/30 11:17:10;;;;;;;2.50;1.40;;;24.50;42.30;;;;;;5015197;28;20436;-64
2022/05/30 11:19:50;;;;;;;2.73;1.37;;;23.60;43.30;;;;;;5014848;28;20901;-64
2022/05/30 11:22:24;;;;;;;9.40;3.33;;;22.90;43.50;;;;;;5014999;28;20476;-64
2022/05/30 11:24:53;;;;;;;1.90;1.47;;;22.20;43.50;;;;;;5015000;28;20449;-64
2022/05/30 11:27:34;;;;;;;1.77;1.23;;;22.00;44.10;;;;;;5014718;28;20457;-64
2022/05/30 11:30:19;;;;;;;2.03;1.80;;;22.10;44.50;;;;;;5015013;28;20441;-64
2022/05/30 11:33:06;;;;;;;2.83;1.53;;;22.50;47.00;;;;;;5015113;28;20437;-64
2022/05/30 11:35:35;;;;;;;1.83;1.73;;;22.90;47.90;;;;;;5007741;28;20452;-64
2022/05/30 11:38:14;;;;;;;1.40;1.40;;;22.90;47.70;;;;;;5015728;28;20464;-64
2022/05/30 11:40:50;;;;;;;2.00;1.13;;;23.00;45.00;;;;;;5015833;28;20846;-64
2022/05/30 11:43:37;;;;;;;6.60;1.70;;;23.40;45.80;;;;;;5015738;28;20470;-64
2022/05/30 11:46:12;;;;;;;1.60;1.47;;;23.60;46.20;;;;;;5015031;28;20448;-64
2022/05/30 11:48:45;;;;;;;1.60;1.50;;;23.80;43.50;;;;;;5015326;28;20523;-67
2022/05/30 11:51:24;;;;;;;3.30;1.80;;;24.00;48.60;;;;;;5014974;28;20468;-67
2022/05/30 11:54:16;;;;;;;1.60;1.50;;;24.20;47.50;;;;;;5014644;28;20443;-67
2022/05/30 11:56:52;;;;;;;1.60;1.50;;;23.90;47.60;;;;;;5015870;28;20437;-67
2022/05/30 11:59:48;;;;;;;13.80;3.07;;;23.50;46.30;;;;;;5016483;28;20491;-67
2022/05/30 12:02:22;;;;;;;2.77;1.57;;;23.10;48.10;;;;;;5015396;28;20580;-67
2022/05/30 12:05:16;;;;;;;2.07;1.90;;;22.80;47.90;;;;;;5014839;28;20448;-67
2022/05/30 12:08:02;;;;;;;3.23;1.80;;;22.10;47.50;;;;;;5012654;28;20600;-67
2022/05/30 12:10:46;;;;;;;2.07;1.73;;;21.90;47.70;;;;;;5014156;28;20808;-67
2022/05/30 12:13:25;;;;;;;2.33;1.93;;;21.60;48.40;;;;;;5014301;28;20441;-67
2022/05/30 12:16:11;;;;;;;16.80;2.53;;;21.30;48.60;;;;;;5014230;28;20441;-67
2022/05/30 12:24:34;;;;;;;1.47;1.37;;;21.60;47.20;;;;;;5014438;28;20424;-67
2022/05/30 12:27:10;;;;;;;1.47;1.37;;;21.50;46.90;;;;;;5015139;28;20437;-67
2022/05/30 12:29:48;;;;;;;1.90;1.80;;;21.50;45.60;;;;;;5015904;28;20441;-67
2022/05/30 12:32:32;;;;;;;1.60;1.50;;;21.50;45.10;;;;;;5015138;28;20987;-67
2022/05/30 12:35:28;;;;;;;1.80;1.57;;;21.60;43.80;;;;;;5014893;28;20491;-67
2022/05/30 12:38:16;;;;;;;2.10;1.70;;;21.80;45.10;;;;;;5014672;28;20441;-67
2022/05/30 12:40:46;;;;;;;1.80;1.70;;;22.30;46.40;;;;;;5014849;28;20484;-67
2022/05/30 12:43:35;;;;;;;3.50;1.63;;;22.60;45.40;;;;;;5014655;28;20468;-68
2022/05/30 12:46:13;;;;;;;1.70;1.60;;;22.90;45.30;;;;;;5014829;28;20495;-67
2022/05/30 12:48:45;;;;;;;4.13;1.83;;;23.20;43.90;;;;;;5014550;28;20436;-67
2022/05/30 12:51:20;;;;;;;1.60;1.47;;;23.50;45.50;;;;;;5014345;28;20465;-67
2022/05/30 12:54:26;;;;;;;1.90;1.80;;;23.50;42.90;;;;;;5014201;28;20486;-67
2022/05/30 12:57:37;;;;;;;3.77;1.97;;;23.40;43.00;;;;;;5011020;28;20530;-67
2022/05/30 13:00:14;;;;;;;1.60;1.50;;;23.50;43.30;;;;;;5010137;28;20464;-68
2022/05/30 13:03:12;;;;;;;3.27;1.50;;;23.60;42.70;;;;;;5014135;28;20471;-67
2022/05/30 13:05:59;;;;;;;4.73;1.67;;;23.90;45.60;;;;;;5013988;28;20479;-68
2022/05/30 13:08:46;;;;;;;2.00;1.60;;;24.20;46.10;;;;;;5015032;28;20476;-67
2022/05/30 13:11:21;;;;;;;3.23;1.80;;;23.90;44.20;;;;;;5014513;28;20472;-67
2022/05/30 13:13:53;;;;;;;3.27;1.63;;;24.00;44.10;;;;;;5014712;28;20447;-67
2022/05/30 13:16:40;;;;;;;1.70;1.60;;;23.90;45.60;;;;;;5014074;28;20441;-67
2022/05/30 13:19:10;;;;;;;3.07;2.07;;;24.20;43.50;;;;;;5017865;28;20441;-67
2022/05/30 13:21:40;;;;;;;1.73;1.63;;;24.40;45.40;;;;;;5018110;28;20530;-67
2022/05/30 13:24:25;;;;;;;2.63;1.93;;;24.30;43.30;;;;;;5017723;28;20448;-67
2022/05/30 13:26:52;;;;;;;3.40;1.60;;;24.10;44.10;;;;;;5017621;28;20437;-67
2022/05/30 13:29:19;;;;;;;1.77;1.60;;;23.70;44.20;;;;;;5017306;28;20463;-67
2022/05/30 13:31:49;;;;;;;1.57;1.47;;;23.10;42.80;;;;;;5017181;28;20471;-67
2022/05/30 13:34:21;;;;;;;1.93;1.67;;;22.60;44.50;;;;;;5017002;28;20433;-67
2022/05/30 13:36:49;;;;;;;3.47;2.03;;;22.40;44.30;;;;;;5017187;28;20425;-67
2022/05/30 13:39:16;;;;;;;1.70;1.60;;;22.20;44.80;;;;;;5017129;28;20449;-67
2022/05/30 13:41:43;;;;;;;3.33;1.60;;;22.30;46.00;;;;;;5017052;28;20481;-68
2022/05/30 13:44:13;;;;;;;1.70;1.60;;;22.60;44.50;;;;;;5017001;28;20457;-68
2022/05/30 13:46:43;;;;;;;1.70;1.60;;;22.70;44.80;;;;;;5016999;28;20861;-68
2022/05/30 13:49:09;;;;;;;2.17;2.07;;;23.10;43.00;;;;;;5017545;28;20848;-68
2022/05/30 13:51:38;;;;;;;1.37;1.37;;;23.20;43.00;;;;;;5016738;28;20468;-68
2022/05/30 13:54:08;;;;;;;1.77;1.63;;;23.30;41.00;;;;;;5016999;28;20456;-66
2022/05/30 13:56:37;;;;;;;2.43;1.57;;;23.40;45.10;;;;;;5016716;28;20457;-66
2022/05/30 13:59:06;;;;;;;3.90;2.17;;;23.60;44.50;;;;;;5016865;28;20449;-66
2022/05/30 14:01:37;;;;;;;1.63;1.53;;;23.80;43.50;;;;;;5016294;28;20936;-66
2022/05/30 14:04:10;;;;;;;3.47;1.73;;;24.00;41.80;;;;;;5016871;28;20783;-66
2022/05/30 14:06:40;;;;;;;3.43;1.90;;;24.10;43.70;;;;;;5016304;28;20908;-66
2022/05/30 14:09:10;;;;;;;1.40;1.33;;;24.20;45.00;;;;;;5016526;28;20461;-66
2022/05/30 14:11:40;;;;;;;2.10;1.90;;;24.30;43.00;;;;;;5016945;28;20468;-65
2022/05/30 14:14:07;;;;;;;2.53;1.90;;;24.40;44.60;;;;;;5016943;28;20459;-65
2022/05/30 14:16:37;;;;;;;2.03;1.80;;;24.50;44.00;;;;;;5016473;28;20941;-65
2022/05/30 14:19:06;;;;;;;4.37;4.00;;;24.50;41.00;;;;;;5016247;28;20456;-65
2022/05/30 14:21:36;;;;;;;2.87;1.70;;;24.50;40.00;;;;;;5016391;28;20540;-65
2022/05/30 14:24:16;;;;;;;1.63;1.53;;;24.50;40.00;;;;;;5016508;28;20794;-65
2022/05/30 14:26:45;;;;;;;2.23;1.53;;;24.60;42.40;;;;;;5016304;28;20441;-65
2022/05/30 14:29:24;;;;;;;1.77;1.67;;;24.60;44.60;;;;;;5016271;28;20463;-65
2022/05/30 14:32:04;;;;;;;1.80;1.70;;;24.50;42.70;;;;;;5016041;28;20472;-65
2022/05/30 14:34:36;;;;;;;1.50;1.40;;;24.30;43.40;;;;;;5016236;28;20445;-65
2022/05/30 14:37:03;;;;;;;3.40;1.50;;;24.30;42.20;;;;;;5016423;28;20457;-68
2022/05/30 14:39:31;;;;;;;1.60;1.60;;;24.30;44.20;;;;;;5015875;28;20457;-68
2022/05/30 14:42:01;;;;;;;1.93;1.80;;;24.20;44.30;;;;;;5015702;28;20489;-68
2022/05/30 14:44:41;;;;;;;1.30;1.30;;;24.10;42.70;;;;;;5015491;28;20940;-67
2022/05/30 14:47:11;;;;;;;1.83;1.73;;;23.90;41.40;;;;;;5015647;28;20880;-68
2022/05/30 14:49:47;;;;;;;4.47;1.77;;;23.70;42.30;;;;;;5016761;28;20444;-68
2022/05/30 14:52:16;;;;;;;2.00;1.80;;;23.80;43.60;;;;;;5015934;28;20476;-68
2022/05/30 14:54:49;;;;;;;2.40;1.67;;;23.60;42.50;;;;;;5015743;28;20452;-68
2022/05/30 14:57:21;;;;;;;3.40;1.40;;;23.30;42.00;;;;;;5015735;28;20500;-68
2022/05/30 14:59:48;;;;;;;2.20;1.47;;;23.10;43.00;;;;;;5015652;28;20437;-69
2022/05/30 15:04:02;;;;;;;1.93;1.77;;;23.20;42.90;;;;;;5015095;28;20895;-68
2022/05/30 15:05:04;;;;;;;1.77;1.67;;;23.30;43.00;;;;;;5015082;28;20453;-68
2022/05/30 15:07:33;;;;;;;6.53;2.63;;;23.30;42.40;;;;;;5015453;28;20453;-66
2022/05/30 15:10:00;;;;;;;2.00;1.90;;;23.10;49.60;;;;;;5015014;28;20456;-68
2022/05/30 15:12:28;;;;;;;2.50;1.97;;;22.70;46.60;;;;;;5015227;28;20476;-67
2022/05/30 15:14:55;;;;;;;2.30;2.07;;;22.50;47.00;;;;;;5015449;28;20461;-68
2022/05/30 15:17:22;;;;;;;2.83;2.63;;;22.40;49.10;;;;;;5015052;28;20965;-68
2022/05/30 15:19:53;;;;;;;2.07;1.87;;;22.60;57.40;;;;;;5014959;28;20452;-68
2022/05/30 15:22:22;;;;;;;4.37;1.80;;;22.70;49.40;;;;;;5015155;28;20486;-69
2022/05/30 15:24:51;;;;;;;4.20;1.90;;;22.90;53.70;;;;;;5015099;28;20536;-67
2022/05/30 15:27:18;;;;;;;2.10;2.00;;;23.00;48.60;;;;;;5015064;28;20475;-66
2022/05/30 15:29:47;;;;;;;1.97;1.50;;;22.70;47.10;;;;;;5014938;28;20982;-66
2022/05/30 15:32:19;;;;;;;1.70;1.60;;;22.40;46.10;;;;;;5015048;28;20465;-66
2022/05/30 15:34:46;;;;;;;2.43;1.60;;;22.20;47.80;;;;;;5015471;28;20470;-66
2022/05/30 15:37:15;;;;;;;1.97;1.73;;;22.10;49.90;;;;;;5014963;28;20460;-66
2022/05/30 15:39:43;;;;;;;2.30;2.13;;;22.00;46.90;;;;;;5014653;28;20449;-66
2022/05/30 15:42:11;;;;;;;2.07;1.97;;;22.00;49.00;;;;;;5014297;28;20487;-66
2022/05/30 15:44:40;;;;;;;1.77;1.67;;;21.90;47.50;;;;;;5014824;28;20453;-66
2022/05/30 15:47:09;;;;;;;1.97;1.87;;;21.90;49.30;;;;;;5014727;28;20460;-66
2022/05/30 15:49:38;;;;;;;2.87;2.67;;;21.90;49.30;;;;;;5014299;28;21001;-67
2022/05/30 15:52:10;;;;;;;1.70;1.60;;;22.00;54.40;;;;;;5014635;28;20504;-66
2022/05/30 15:57:30;;;;;;;3.43;2.50;;;22.20;49.40;;;;;;5014678;28;20416;-66
2022/05/30 15:59:58;;;;;;;2.13;1.93;;;22.30;51.50;;;;;;5014577;28;20464;-66
2022/05/30 16:02:29;;;;;;;5.00;2.50;;;22.40;46.50;;;;;;5014275;28;20820;-66
2022/05/30 16:04:56;;;;;;;1.90;1.60;;;22.10;47.30;;;;;;5014197;28;20480;-66
2022/05/30 16:07:23;;;;;;;2.33;1.60;;;22.20;48.70;;;;;;5014157;28;20547;-67
2022/05/30 16:09:51;;;;;;;1.57;1.50;;;22.00;48.60;;;;;;5014237;28;20457;-66
2022/05/30 16:12:21;;;;;;;2.40;2.20;;;22.10;46.10;;;;;;5013885;28;20552;-66
2022/05/30 16:14:47;;;;;;;3.60;2.27;;;22.10;49.40;;;;;;5014324;28;20467;-66
2022/05/30 16:17:14;;;;;;;2.17;1.87;;;22.20;49.10;;;;;;5013983;28;20940;-66
2022/05/30 16:19:42;;;;;;;1.67;1.57;;;22.10;46.90;;;;;;5014239;28;20834;-64
2022/05/30 16:22:10;;;;;;;2.17;1.67;;;22.00;47.10;;;;;;5014165;28;20477;-66
2022/05/30 16:24:37;;;;;;;4.50;1.80;;;21.90;48.00;;;;;;5014236;28;20459;-66
2022/05/30 16:27:06;;;;;;;1.80;1.70;;;22.00;49.90;;;;;;5014480;28;20457;-66
2022/05/30 16:29:33;;;;;;;1.70;1.60;;;21.90;47.00;;;;;;5015343;28;20452;-67
2022/05/30 16:32:00;;;;;;;1.90;1.60;;;21.90;46.60;;;;;;5016047;28;20480;-67
2022/05/30 16:34:27;;;;;;;2.00;1.90;;;21.90;50.10;;;;;;5015641;28;20453;-68
2022/05/30 16:36:55;;;;;;;1.70;1.60;;;22.00;51.40;;;;;;5014440;28;20468;-68
2022/05/30 16:39:22;;;;;;;2.00;1.90;;;22.00;48.40;;;;;;5014165;28;20457;-66
2022/05/30 16:41:51;;;;;;;2.40;1.77;;;21.80;46.70;;;;;;5013991;28;20477;-66
2022/05/30 16:44:20;;;;;;;2.13;1.73;;;21.70;45.70;;;;;;5013974;28;20564;-66
2022/05/30 16:46:47;;;;;;;4.63;1.93;;;21.60;46.30;;;;;;5013778;28;20453;-67
2022/05/30 16:49:15;;;;;;;2.13;1.77;;;21.50;46.60;;;;;;5013705;28;20473;-67
2022/05/30 16:51:42;;;;;;;1.80;1.70;;;21.30;47.30;;;;;;5014218;28;20472;-67
2022/05/30 16:54:12;;;;;;;2.20;2.00;;;21.10;46.10;;;;;;5017300;28;20788;-68
2022/05/30 16:56:39;;;;;;;2.17;1.97;;;21.00;46.40;;;;;;5017765;28;20456;-68
2022/05/30 16:59:07;;;;;;;1.57;1.50;;;20.80;46.40;;;;;;5017778;28;20456;-68
2022/05/30 17:01:33;;;;;;;1.53;1.43;;;20.70;47.20;;;;;;5016835;28;20578;-69
2022/05/30 17:04:00;;;;;;;2.17;1.90;;;20.60;47.10;;;;;;5015866;28;21011;-68
2022/05/30 17:06:27;;;;;;;1.60;1.50;;;20.70;47.90;;;;;;5016255;28;20464;-68
2022/05/30 17:08:53;;;;;;;2.73;1.43;;;20.60;47.80;;;;;;5016359;28;20967;-69
2022/05/30 17:11:22;;;;;;;2.07;1.73;;;20.60;47.70;;;;;;5016165;28;20472;-68
2022/05/30 17:13:48;;;;;;;1.97;1.70;;;20.60;47.60;;;;;;5016451;28;20456;-68
2022/05/30 17:16:21;;;;;;;1.97;1.53;;;20.50;47.20;;;;;;5015719;28;20962;-68
2022/05/30 17:18:48;;;;;;;2.53;1.97;;;20.30;47.20;;;;;;5016592;28;20448;-68
2022/05/30 17:21:15;;;;;;;3.67;2.10;;;20.30;47.00;;;;;;5015934;28;20995;-68
2022/05/30 17:23:43;;;;;;;3.77;2.33;;;20.20;46.50;;;;;;5016345;28;20576;-67
2022/05/30 17:26:13;;;;;;;3.37;3.17;;;20.20;46.60;;;;;;5016288;28;20459;-69
2022/05/30 17:31:31;;;;;;;3.40;1.80;;;20.00;47.00;;;;;;5017422;28;20464;-69
2022/05/30 17:33:58;;;;;;;1.90;1.80;;;20.00;47.10;;;;;;5016908;28;20443;-69
2022/05/30 17:36:25;;;;;;;1.73;1.63;;;19.80;47.50;;;;;;5016461;28;20455;-69